Time;durP1;ratioP1;P1;durP2;ratioP2;P2;SDS_P1;SDS_P2;PMS_P1;PMS_P2;Temp;Humidity;BMP_temperature;BMP_pressure;BME280_temperature;BME280_humidity;BME280_pressure;Samples;Min_cycle;Max_cycle;Signal;HPM_P1;HPM_P2
2021/04/09 00:00:16;;;;;;;11.50;10.30;;;0.10;99.90;;;0.68;74.77;98268.16;5185231;28;20678;-54
2021/04/09 00:02:48;;;;;;;11.17;9.50;;;0.10;99.90;;;0.61;74.65;98275.84;5187535;28;20248;-55
2021/04/09 00:05:22;;;;;;;11.77;10.67;;;0.00;99.90;;;0.63;74.48;98264.28;5187035;28;20222;-56
2021/04/09 00:07:56;;;;;;;12.27;11.07;;;0.00;99.90;;;0.62;74.66;98272.59;5201964;28;20198;-55
2021/04/09 00:10:30;;;;;;;12.20;10.80;;;0.00;99.90;;;0.58;74.36;98270.50;5171524;28;20279;-56
2021/04/09 00:13:03;;;;;;;11.33;10.23;;;0.00;99.90;;;0.57;75.05;98264.59;5194549;28;20311;-56
2021/04/09 00:15:36;;;;;;;11.07;9.57;;;-0.10;99.90;;;0.58;74.61;98260.44;5186742;28;20708;-56
2021/04/09 00:18:08;;;;;;;11.77;10.63;;;-0.10;99.90;;;0.56;75.14;98254.38;5193900;28;20376;-57
2021/04/09 00:20:41;;;;;;;12.00;10.80;;;-0.10;99.90;;;0.55;74.51;98262.66;5185632;28;20199;-57
2021/04/09 00:23:13;;;;;;;12.10;10.90;;;-0.10;99.90;;;0.47;75.10;98264.38;5189616;28;20591;-56
2021/04/09 00:25:45;;;;;;;10.80;9.77;;;-0.20;99.90;;;0.49;75.33;98255.38;5200095;28;20245;-55
2021/04/09 00:28:17;;;;;;;10.63;9.50;;;-0.20;99.90;;;0.43;75.17;98258.16;5203374;28;20289;-57
2021/04/09 00:30:50;;;;;;;10.97;9.87;;;-0.20;99.90;;;0.41;75.30;98259.63;5193047;28;20286;-57
2021/04/09 00:33:23;;;;;;;10.70;9.23;;;-0.20;99.90;;;0.42;75.42;98252.97;5194467;28;20214;-55
2021/04/09 00:35:56;;;;;;;10.87;9.87;;;-0.20;99.90;;;0.45;75.21;98264.22;5205259;28;20584;-58
2021/04/09 00:38:28;;;;;;;10.23;9.23;;;-0.20;99.90;;;0.34;75.14;98249.66;5191201;28;20202;-59
2021/04/09 00:41:00;;;;;;;11.90;10.70;;;-0.30;99.90;;;0.24;75.83;98261.16;5184592;28;20198;-57
2021/04/09 00:43:32;;;;;;;11.50;10.40;;;-0.30;99.90;;;0.28;75.32;98251.53;5197965;28;20221;-57
2021/04/09 00:46:04;;;;;;;11.27;10.27;;;-0.40;99.90;;;0.29;75.49;98248.31;5173388;28;20678;-57
2021/04/09 00:48:36;;;;;;;10.93;9.87;;;-0.30;99.90;;;0.26;75.96;98250.53;5174461;28;20199;-58
2021/04/09 00:51:10;;;;;;;10.87;9.77;;;-0.30;99.90;;;0.31;75.75;98253.47;5164275;28;20200;-56
2021/04/09 00:53:43;;;;;;;10.07;9.17;;;-0.30;99.90;;;0.35;76.18;98245.53;5186433;28;20313;-57
2021/04/09 00:56:19;;;;;;;11.60;10.50;;;-0.20;99.90;;;0.33;75.81;98239.47;5164436;28;20299;-57
2021/04/09 00:58:52;;;;;;;10.43;9.27;;;-0.30;99.90;;;0.29;75.75;98240.78;5186423;28;20206;-57
2021/04/09 01:01:25;;;;;;;10.47;9.50;;;-0.30;99.90;;;0.26;76.10;98235.44;5186857;28;20290;-55
2021/04/09 01:03:58;;;;;;;9.87;8.93;;;-0.40;99.90;;;0.23;75.83;98242.66;5187970;28;20241;-57
2021/04/09 01:06:31;;;;;;;11.77;10.03;;;-0.40;99.90;;;0.29;76.27;98228.22;5190280;28;20681;-54
2021/04/09 01:09:04;;;;;;;10.40;9.30;;;-0.30;99.90;;;0.38;75.65;98234.16;5191707;28;20202;-53
2021/04/09 01:11:36;;;;;;;10.37;9.47;;;-0.30;99.90;;;0.36;76.13;98228.09;5189907;28;20730;-55
2021/04/09 01:14:09;;;;;;;9.73;8.83;;;-0.20;99.90;;;0.36;76.49;98232.22;5187060;28;20219;-52
2021/04/09 01:16:46;;;;;;;9.23;8.43;;;-0.30;99.90;;;0.35;75.90;98221.28;5196659;28;20199;-54
2021/04/09 01:19:49;;;;;;;9.17;8.30;;;-0.30;99.90;;;0.35;75.62;98215.38;5189193;28;20576;-58
2021/04/09 01:22:26;;;;;;;10.20;9.20;;;-0.30;99.90;;;0.38;75.58;98206.50;5197111;28;20310;-54
2021/04/09 01:25:27;;;;;;;9.77;8.87;;;-0.30;99.90;;;0.40;75.84;98205.06;5176493;28;20302;-57
2021/04/09 01:28:14;;;;;;;10.20;9.30;;;-0.30;99.90;;;0.54;75.59;98203.91;5188485;28;20201;-55
2021/04/09 01:31:34;;;;;;;10.47;9.37;;;-0.30;99.90;;;0.50;75.80;98205.97;5196241;28;20208;-56
2021/04/09 01:34:08;;;;;;;9.13;8.33;;;-0.20;99.90;;;0.39;75.80;98203.25;5203638;28;20210;-57
2021/04/09 01:36:44;;;;;;;9.63;8.73;;;-0.20;99.90;;;0.39;75.92;98203.25;5200127;28;20695;-56
2021/04/09 01:39:26;;;;;;;10.07;9.07;;;-0.30;99.90;;;0.39;76.06;98217.44;5197224;28;20745;-55
2021/04/09 01:42:00;;;;;;;9.47;8.57;;;-0.20;99.90;;;0.33;75.56;98207.66;5196604;28;20198;-57
2021/04/09 01:44:34;;;;;;;10.20;9.20;;;-0.30;99.90;;;0.35;75.69;98206.19;5191115;28;20218;-56
2021/04/09 01:47:09;;;;;;;10.50;9.50;;;-0.30;99.90;;;0.35;75.84;98198.66;5201451;28;20225;-57
2021/04/09 01:49:43;;;;;;;9.80;8.60;;;-0.30;99.90;;;0.39;75.53;98202.38;5206596;28;20661;-55
2021/04/09 01:52:16;;;;;;;10.60;9.60;;;-0.30;99.90;;;0.27;75.48;98197.00;5207828;28;20198;-58
2021/04/09 01:54:49;;;;;;;10.47;9.53;;;-0.40;99.90;;;0.31;75.80;98190.63;5187544;28;20195;-55
2021/04/09 01:57:23;;;;;;;10.17;9.17;;;-0.40;99.90;;;0.20;75.72;98179.50;5187107;28;20237;-56
2021/04/09 01:59:59;;;;;;;10.67;9.67;;;-0.50;99.90;;;0.21;76.49;98191.34;5199045;28;20205;-56
2021/04/09 02:02:33;;;;;;;10.23;9.27;;;-0.40;99.90;;;0.20;75.76;98194.56;5167480;28;20296;-55
2021/04/09 02:05:07;;;;;;;10.07;9.07;;;-0.50;99.90;;;0.27;75.84;98184.44;5166931;28;20718;-58
2021/04/09 02:07:42;;;;;;;11.70;10.50;;;-0.40;99.90;;;0.26;75.77;98185.16;5167877;28;20203;-57
2021/04/09 02:10:15;;;;;;;10.90;9.90;;;-0.50;99.90;;;0.21;76.06;98184.69;5168661;28;20199;-56
2021/04/09 02:12:48;;;;;;;11.30;10.23;;;-0.50;99.90;;;0.26;76.31;98182.66;5169135;28;20310;-58
2021/04/09 02:15:24;;;;;;;10.83;9.77;;;-0.50;99.90;;;0.31;76.66;98183.97;5187705;28;20286;-54
2021/04/09 02:17:57;;;;;;;10.63;9.57;;;-0.40;99.90;;;0.31;76.28;98176.44;5169387;28;20618;-56
2021/04/09 02:20:30;;;;;;;10.07;9.10;;;-0.40;99.90;;;0.27;76.16;98176.00;5207401;28;20555;-54
2021/04/09 02:23:02;;;;;;;10.53;9.53;;;-0.50;99.90;;;0.25;76.50;98172.44;5188568;28;20218;-55
2021/04/09 02:25:35;;;;;;;10.73;9.83;;;-0.40;99.90;;;0.25;76.28;98167.41;5189074;28;20225;-55
2021/04/09 02:28:07;;;;;;;10.03;9.03;;;-0.50;99.90;;;0.27;76.19;98170.97;5206849;28;20206;-58
2021/04/09 02:30:39;;;;;;;10.53;9.57;;;-0.50;99.90;;;0.25;76.42;98172.44;5185679;28;20209;-54
2021/04/09 02:33:12;;;;;;;11.03;9.93;;;-0.50;99.90;;;0.25;75.78;98168.28;5166262;28;20223;-55
2021/04/09 02:35:44;;;;;;;12.13;10.93;;;-0.60;99.90;;;0.22;76.64;98162.94;5189731;28;20257;-56
2021/04/09 02:38:16;;;;;;;10.93;9.93;;;-0.60;99.90;;;0.18;76.19;98156.72;5200110;28;20203;-56
2021/04/09 02:40:50;;;;;;;11.17;9.13;;;-0.60;99.90;;;0.15;76.55;98168.09;5189280;28;20659;-56
2021/04/09 02:43:23;;;;;;;10.90;9.80;;;-0.60;99.90;;;0.20;76.52;98159.38;5191961;28;20226;-57
2021/04/09 02:45:56;;;;;;;11.77;10.00;;;-0.60;99.90;;;0.24;76.71;98158.09;5183326;28;20285;-55
2021/04/09 02:48:35;;;;;;;9.80;8.90;;;-0.60;99.90;;;0.26;75.91;98149.97;5186079;28;20205;-55
2021/04/09 02:51:10;;;;;;;10.07;9.07;;;-0.60;99.90;;;0.18;76.00;98145.81;5199024;28;20569;-55
2021/04/09 02:53:43;;;;;;;10.27;9.33;;;-0.60;99.90;;;0.19;76.05;98140.03;5199950;28;20242;-57
2021/04/09 02:56:16;;;;;;;10.73;9.07;;;-0.60;99.90;;;0.11;76.27;98143.38;5186961;28;20281;-58
2021/04/09 02:58:48;;;;;;;10.50;9.57;;;-0.60;99.90;;;0.18;76.64;98149.19;5186179;28;20202;-56
2021/04/09 03:01:23;;;;;;;11.50;10.23;;;-0.60;99.90;;;0.14;76.44;98144.59;5198420;28;20208;-57
2021/04/09 03:03:56;;;;;;;10.67;9.60;;;-0.60;99.90;;;0.16;76.37;98147.25;5193488;28;20220;-56
2021/04/09 03:06:28;;;;;;;9.87;8.53;;;-0.70;99.90;;;0.19;76.47;98142.53;5185806;28;20728;-57
2021/04/09 03:09:01;;;;;;;9.27;8.30;;;-0.70;99.90;;;0.16;75.71;98142.22;5179702;28;20282;-56
2021/04/09 03:11:33;;;;;;;9.90;9.00;;;-0.70;99.90;;;0.14;76.06;98146.22;5165670;28;20203;-56
2021/04/09 03:14:05;;;;;;;9.17;8.37;;;-0.70;99.90;;;0.08;76.77;98133.03;5192998;28;20304;-56
2021/04/09 03:16:43;;;;;;;9.70;8.77;;;-0.70;99.90;;;0.14;75.90;98138.66;5184283;28;20205;-55
2021/04/09 03:19:16;;;;;;;8.67;7.87;;;-0.70;99.90;;;0.07;76.36;98136.28;5185903;28;20550;-55
2021/04/09 03:21:48;;;;;;;9.33;7.93;;;-0.70;99.90;;;0.13;76.08;98134.38;5185773;28;20234;-58
2021/04/09 03:24:20;;;;;;;8.63;7.93;;;-0.80;99.90;;;0.08;76.26;98128.00;5187543;28;20226;-55
2021/04/09 03:26:52;;;;;;;9.83;8.83;;;-0.70;99.90;;;0.09;75.91;98125.66;5185432;28;20206;-58
2021/04/09 03:29:24;;;;;;;9.23;8.43;;;-0.80;99.90;;;0.10;75.84;98121.50;5200206;28;20208;-54
2021/04/09 03:31:56;;;;;;;9.90;9.00;;;-0.70;99.90;;;0.07;76.12;98126.22;5194346;28;20199;-57
2021/04/09 03:34:30;;;;;;;10.50;9.47;;;-0.80;99.90;;;0.04;75.75;98119.28;5195430;28;20229;-56
2021/04/09 03:37:02;;;;;;;10.13;9.13;;;-0.80;99.90;;;-0.02;75.93;98109.50;5206072;28;20206;-53
2021/04/09 03:39:34;;;;;;;9.13;8.33;;;-0.90;99.90;;;-0.09;76.62;98117.13;5174725;28;20286;-53
2021/04/09 03:42:07;;;;;;;10.67;9.57;;;-0.90;99.90;;;-0.08;76.33;98111.38;5187549;28;20195;-52
2021/04/09 03:44:39;;;;;;;9.10;8.27;;;-0.90;99.90;;;-0.09;76.22;98112.09;5185171;28;20222;-56
2021/04/09 03:47:12;;;;;;;8.90;8.20;;;-0.90;99.90;;;-0.06;76.32;98102.38;5198820;28;20650;-55
2021/04/09 03:49:45;;;;;;;9.63;8.67;;;-0.90;99.90;;;-0.09;75.93;98104.56;5205620;28;20198;-57
2021/04/09 03:52:17;;;;;;;10.20;9.13;;;-0.90;99.90;;;-0.15;76.40;98108.09;5191361;28;20218;-56
2021/04/09 03:54:49;;;;;;;10.20;9.20;;;-1.00;99.90;;;-0.14;76.29;98110.75;5167428;28;20287;-54
2021/04/09 03:57:21;;;;;;;9.33;8.43;;;-1.00;99.90;;;-0.13;76.76;98106.63;5178938;28;20309;-52
2021/04/09 03:59:53;;;;;;;10.13;9.13;;;-1.00;99.90;;;-0.16;76.26;98109.72;5185043;28;20202;-54
2021/04/09 04:02:25;;;;;;;10.37;8.73;;;-1.00;99.90;;;-0.24;76.68;98115.56;5203735;28;20244;-58
2021/04/09 04:04:58;;;;;;;9.77;8.80;;;-1.10;99.90;;;-0.27;76.98;98112.75;5205276;28;20307;-59
2021/04/09 04:07:30;;;;;;;10.10;9.17;;;-1.10;99.90;;;-0.23;77.12;98119.84;5185305;28;20226;-54
2021/04/09 04:10:04;;;;;;;10.23;9.23;;;-1.10;99.90;;;-0.22;77.42;98113.22;5184294;28;20226;-54
2021/04/09 04:12:37;;;;;;;9.60;8.70;;;-1.10;99.90;;;-0.26;77.50;98122.06;5204120;28;20244;-55
2021/04/09 04:15:09;;;;;;;9.87;8.93;;;-1.00;99.90;;;-0.22;76.74;98116.63;5196061;28;20608;-54
2021/04/09 04:17:42;;;;;;;9.60;8.70;;;-1.00;99.90;;;-0.20;77.01;98119.28;5203723;28;20233;-55
2021/04/09 04:20:15;;;;;;;9.07;8.27;;;-1.00;99.90;;;-0.20;76.41;98109.22;5205519;28;20301;-56
2021/04/09 04:22:47;;;;;;;9.80;8.27;;;-1.00;99.90;;;-0.17;76.08;98110.47;5184917;28;20227;-56
2021/04/09 04:25:19;;;;;;;9.43;8.43;;;-1.00;99.90;;;-0.18;76.35;98113.69;5183658;28;20305;-53
2021/04/09 04:27:52;;;;;;;9.37;8.43;;;-1.10;99.90;;;-0.27;76.04;98118.66;5184381;28;20199;-54
2021/04/09 04:30:25;;;;;;;8.33;7.63;;;-1.10;99.90;;;-0.29;76.12;98116.72;5184968;28;20294;-57
2021/04/09 04:32:57;;;;;;;9.20;8.10;;;-1.10;99.90;;;-0.30;77.22;98122.47;5175633;28;20219;-56
2021/04/09 04:35:30;;;;;;;9.83;8.83;;;-1.10;99.90;;;-0.27;77.46;98122.78;5192295;28;20658;-58
2021/04/09 04:38:05;;;;;;;10.20;9.20;;;-1.10;99.90;;;-0.26;76.45;98117.03;5207038;28;20288;-56
2021/04/09 04:40:37;;;;;;;10.40;9.30;;;-1.00;99.90;;;-0.27;77.47;98120.28;5201842;28;20327;-55
2021/04/09 04:43:09;;;;;;;9.93;8.93;;;-1.10;99.90;;;-0.21;76.83;98123.41;5196578;28;20597;-57
2021/04/09 04:45:42;;;;;;;9.17;8.37;;;-1.10;99.90;;;-0.23;77.66;98119.84;5188322;28;20226;-54
2021/04/09 04:48:14;;;;;;;9.77;8.77;;;-1.10;99.90;;;-0.25;76.17;98121.34;5198803;28;20635;-53
2021/04/09 04:50:47;;;;;;;9.20;8.40;;;-1.10;99.90;;;-0.33;76.86;98117.16;5185069;28;20199;-56
2021/04/09 04:53:19;;;;;;;9.37;8.17;;;-1.20;99.90;;;-0.27;76.39;98120.28;5190740;28;20220;-54
2021/04/09 04:55:51;;;;;;;9.50;8.60;;;-1.10;99.90;;;-0.26;76.64;98119.53;5188123;28;20289;-56
2021/04/09 04:58:24;;;;;;;9.70;8.80;;;-1.10;99.90;;;-0.24;76.36;98130.63;5200873;28;20289;-57
2021/04/09 05:00:56;;;;;;;9.27;8.37;;;-1.10;99.90;;;-0.20;77.41;98115.16;5199295;28;20285;-55
2021/04/09 05:03:28;;;;;;;9.47;8.67;;;-1.10;99.90;;;-0.21;76.40;98118.41;5188453;28;20305;-55
2021/04/09 05:06:01;;;;;;;9.17;8.40;;;-1.10;99.90;;;-0.20;77.45;98110.16;5197122;28;20222;-55
2021/04/09 05:08:33;;;;;;;9.47;8.67;;;-1.10;99.90;;;-0.18;76.68;98118.72;5175899;28;20277;-58
2021/04/09 05:11:05;;;;;;;9.73;8.80;;;-1.10;99.90;;;-0.16;77.16;98127.28;5184832;28;20198;-56
2021/04/09 05:13:37;;;;;;;10.37;9.27;;;-1.00;99.90;;;-0.11;76.61;98130.28;5208392;28;20264;-57
2021/04/09 05:16:09;;;;;;;10.13;9.23;;;-1.00;99.90;;;-0.15;76.84;98130.69;5189564;28;20285;-57
2021/04/09 05:18:41;;;;;;;10.13;9.20;;;-1.00;99.90;;;-0.10;76.36;98134.56;5187812;28;20206;-54
2021/04/09 05:21:14;;;;;;;10.20;9.20;;;-0.90;99.90;;;-0.06;75.90;98136.63;5207139;28;20568;-58
2021/04/09 05:23:46;;;;;;;10.37;9.37;;;-0.90;99.90;;;0.03;76.24;98131.66;5186700;28;20669;-57
2021/04/09 05:26:19;;;;;;;12.90;10.50;;;-0.80;99.90;;;0.16;75.92;98133.06;5206843;28;20222;-57
2021/04/09 05:28:51;;;;;;;12.30;10.10;;;-0.70;99.90;;;0.29;76.47;98136.84;5208170;28;20661;-55
2021/04/09 05:31:23;;;;;;;10.77;9.77;;;-0.70;99.90;;;0.54;74.98;98132.59;5189173;28;20285;-56
2021/04/09 05:33:55;;;;;;;10.70;9.63;;;-0.60;99.90;;;0.59;74.65;98129.81;5187621;28;20662;-57
2021/04/09 05:36:29;;;;;;;10.27;9.17;;;-0.50;99.90;;;0.85;73.75;98122.31;5199894;28;20201;-56
2021/04/09 05:39:01;;;;;;;8.80;8.10;;;-0.20;99.90;;;0.86;73.89;98119.09;5167262;28;20553;-57
2021/04/09 05:41:33;;;;;;;10.00;9.03;;;-0.20;99.90;;;1.08;72.94;98123.69;5201981;28;20199;-56
2021/04/09 05:44:06;;;;;;;10.77;9.77;;;-0.20;99.90;;;1.27;72.59;98128.91;5191499;28;20227;-58
2021/04/09 05:46:38;;;;;;;11.13;10.10;;;0.00;99.90;;;1.67;72.19;98115.09;5203671;28;20221;-53
2021/04/09 05:49:10;;;;;;;9.77;8.77;;;0.30;99.90;;;2.09;70.92;98110.69;5187539;28;20211;-57
2021/04/09 05:51:43;;;;;;;9.43;8.53;;;0.60;99.90;;;2.39;69.14;98106.69;5189419;28;20549;-56
2021/04/09 05:54:15;;;;;;;9.80;8.83;;;0.90;99.90;;;2.74;68.48;98096.41;5198648;28;20730;-56
2021/04/09 05:56:47;;;;;;;10.57;9.43;;;1.20;99.90;;;2.87;67.75;98094.25;5189427;28;20545;-55
2021/04/09 05:59:19;;;;;;;10.73;9.63;;;1.30;99.90;;;3.08;66.13;98100.34;5191084;28;20226;-56
2021/04/09 06:01:51;;;;;;;10.47;9.47;;;1.40;99.90;;;3.32;65.72;98094.03;5207880;28;20638;-55
2021/04/09 06:04:24;;;;;;;9.23;8.53;;;1.60;99.90;;;3.67;64.99;98092.09;5196041;28;20224;-55
2021/04/09 06:06:57;;;;;;;9.63;8.73;;;1.90;99.90;;;3.98;64.35;98085.53;5194295;28;20306;-58
2021/04/09 06:09:30;;;;;;;9.63;8.70;;;2.20;99.90;;;4.56;63.45;98081.09;5174591;28;20651;-59
2021/04/09 06:12:03;;;;;;;9.07;8.17;;;2.70;99.90;;;4.72;60.74;98081.59;5198398;28;20205;-60
2021/04/09 06:14:38;;;;;;;9.17;8.23;;;2.90;99.90;;;5.32;59.67;98078.88;5201171;28;20215;-55
2021/04/09 06:17:10;;;;;;;10.17;9.20;;;3.20;99.90;;;5.72;57.84;98070.28;5205653;28;20209;-58
2021/04/09 06:19:47;;;;;;;9.43;8.53;;;3.50;99.90;;;6.25;56.23;98067.66;5205817;28;20197;-56
2021/04/09 06:22:21;;;;;;;10.03;9.03;;;3.90;99.90;;;6.31;55.95;98069.00;5195206;28;20304;-60
2021/04/09 06:24:56;;;;;;;10.27;9.30;;;3.90;99.90;;;6.41;55.50;98067.16;5192688;28;20223;-55
2021/04/09 06:27:29;;;;;;;10.53;9.57;;;3.90;99.90;;;6.47;55.27;98065.13;5185438;28;20203;-58
2021/04/09 06:30:01;;;;;;;10.63;9.63;;;3.90;99.90;;;6.56;54.95;98075.97;5187086;28;20689;-59
2021/04/09 06:32:34;;;;;;;11.13;10.13;;;4.10;99.90;;;6.54;54.20;98073.28;5188320;28;20234;-60
2021/04/09 06:35:07;;;;;;;9.70;8.90;;;4.20;99.90;;;6.51;52.83;98069.66;5187318;28;20202;-60
2021/04/09 06:37:41;;;;;;;9.47;8.67;;;4.20;99.90;;;6.81;53.30;98072.72;5184664;28;20194;-55
2021/04/09 06:40:14;;;;;;;10.83;9.87;;;4.40;99.90;;;6.94;53.46;98077.94;5184471;28;20297;-60
2021/04/09 06:42:46;;;;;;;10.80;9.80;;;4.60;99.90;;;7.22;53.21;98074.13;5184884;28;20234;-57
2021/04/09 06:45:18;;;;;;;10.57;9.47;;;4.90;99.90;;;7.41;52.90;98070.38;5187641;28;20228;-57
2021/04/09 06:47:52;;;;;;;10.33;9.23;;;5.30;99.90;;;7.93;51.58;98065.59;5182134;28;20199;-59
2021/04/09 06:50:26;;;;;;;9.60;8.80;;;5.60;99.80;;;8.09;51.62;98069.31;5181179;28;20198;-55
2021/04/09 06:52:59;;;;;;;9.77;8.73;;;5.80;99.50;;;8.31;50.49;98063.19;5191581;28;20226;-60
2021/04/09 06:55:32;;;;;;;15.10;11.57;;;6.00;98.50;;;8.40;50.80;98063.84;5178159;28;20298;-58
2021/04/09 06:58:08;;;;;;;12.50;11.20;;;6.20;98.40;;;8.81;49.33;98055.56;5182420;28;20394;-59
2021/04/09 07:00:40;;;;;;;10.97;9.53;;;6.50;98.30;;;9.17;48.35;98053.69;5203388;28;20288;-58
2021/04/09 07:03:13;;;;;;;9.93;9.07;;;6.70;96.90;;;9.40;47.98;98056.06;5198081;28;20306;-60
2021/04/09 07:05:46;;;;;;;9.50;8.80;;;6.70;97.30;;;9.39;47.51;98051.75;5206256;28;20272;-61
2021/04/09 07:08:19;;;;;;;10.83;9.83;;;6.60;97.20;;;9.64;47.40;98048.19;5197819;28;20194;-59
2021/04/09 07:10:53;;;;;;;10.30;9.40;;;6.70;97.40;;;9.84;46.54;98047.81;5185530;28;20579;-59
2021/04/09 07:13:25;;;;;;;10.93;9.93;;;6.90;97.00;;;9.99;46.90;98047.88;5190399;28;20224;-60
2021/04/09 07:15:58;;;;;;;10.87;9.83;;;7.20;96.50;;;9.89;46.23;98043.84;5179968;28;20208;-60
2021/04/09 07:18:50;;;;;;;10.33;9.43;;;7.20;95.90;;;9.84;47.00;98042.72;5164907;28;20282;-58
2021/04/09 07:21:25;;;;;;;10.57;9.67;;;7.30;96.00;;;10.08;46.00;98047.56;5165854;28;20579;-60
2021/04/09 07:24:22;;;;;;;10.50;9.43;;;7.30;95.90;;;9.96;45.84;98036.56;5165771;28;20214;-59
2021/04/09 07:26:55;;;;;;;11.43;10.00;;;7.20;95.70;;;10.13;45.91;98046.19;5159644;28;20231;-60
2021/04/09 07:29:44;;;;;;;9.97;9.00;;;7.40;95.80;;;10.13;46.17;98041.06;5165354;28;20200;-59
2021/04/09 07:32:29;;;;;;;10.77;9.67;;;7.60;95.50;;;10.00;46.64;98038.53;5166442;28;20623;-59
2021/04/09 07:35:12;;;;;;;10.33;9.37;;;7.90;94.90;;;9.77;47.49;98032.88;5165092;28;20207;-60
2021/04/09 07:37:54;;;;;;;10.10;9.03;;;7.70;95.40;;;10.01;46.84;98028.41;5165311;28;20582;-59
2021/04/09 07:40:30;;;;;;;9.37;8.43;;;7.90;95.00;;;10.17;47.28;98027.69;5185017;28;20203;-60
2021/04/09 07:43:02;;;;;;;10.20;9.33;;;8.30;94.70;;;10.24;46.46;98019.59;5185246;28;20226;-59
2021/04/09 07:45:34;;;;;;;10.07;9.23;;;8.50;94.30;;;10.20;46.56;98014.22;5175000;28;20223;-60
2021/04/09 07:48:07;;;;;;;10.87;9.87;;;8.60;94.20;;;10.34;46.74;98011.75;5165016;28;20290;-60
2021/04/09 07:50:42;;;;;;;10.50;9.30;;;8.70;94.20;;;10.28;46.49;98006.28;5164968;28;20578;-60
2021/04/09 07:53:19;;;;;;;9.77;8.87;;;8.70;94.10;;;10.38;47.03;98012.81;5170789;28;20305;-59
2021/04/09 07:56:02;;;;;;;10.73;9.63;;;8.90;93.40;;;10.51;46.52;98005.09;5191969;28;20207;-61
2021/04/09 07:58:35;;;;;;;10.27;8.87;;;9.20;93.40;;;10.80;46.16;98001.69;5194498;28;20224;-59
2021/04/09 08:01:20;;;;;;;9.88;8.90;;;9.50;92.70;;;11.15;45.72;97997.72;5200245;28;20285;-59
2021/04/09 08:03:54;;;;;;;9.00;8.30;;;9.70;92.80;;;11.30;45.35;97999.38;5181103;28;20314;-60
2021/04/09 08:06:36;;;;;;;10.23;9.10;;;9.90;92.40;;;11.30;44.52;97994.25;5174514;28;20221;-59
2021/04/09 08:09:08;;;;;;;9.53;8.60;;;9.70;91.90;;;11.28;44.93;97992.50;5187070;28;20677;-61
2021/04/09 08:11:41;;;;;;;8.82;7.95;;;9.80;92.00;;;11.33;44.83;97984.19;5176758;28;20726;-61
2021/04/09 08:14:15;;;;;;;9.07;8.15;;;9.80;91.70;;;11.44;44.21;97981.44;5180648;28;20260;-59
2021/04/09 08:16:49;;;;;;;10.02;9.00;;;10.00;91.30;;;11.38;44.52;97978.53;5183384;28;20629;-61
2021/04/09 08:19:24;;;;;;;9.13;8.23;;;9.90;91.80;;;11.54;44.83;97987.97;5184345;28;20202;-60
2021/04/09 08:21:58;;;;;;;8.98;8.07;;;10.00;91.70;;;11.42;45.00;97977.06;5185948;28;20577;-59
2021/04/09 08:24:32;;;;;;;9.02;8.23;;;10.00;91.80;;;11.45;44.66;97980.66;5184045;28;20191;-60
2021/04/09 08:27:07;;;;;;;8.73;8.02;;;10.00;91.60;;;11.34;44.61;97978.31;5184061;28;20238;-61
2021/04/09 08:29:42;;;;;;;9.35;8.38;;;9.90;91.30;;;11.37;44.48;97974.22;5188181;28;20296;-59
2021/04/09 08:32:16;;;;;;;8.80;8.00;;;9.80;91.50;;;11.58;44.50;97974.53;5195310;28;20198;-60
2021/04/09 08:34:49;;;;;;;9.07;8.25;;;10.10;91.70;;;11.71;44.70;97976.97;5166560;28;20225;-58
2021/04/09 08:37:22;;;;;;;9.65;7.60;;;10.30;91.30;;;11.76;44.16;97979.78;5183123;28;20277;-60
2021/04/09 08:39:55;;;;;;;8.20;7.40;;;10.40;90.80;;;11.80;43.79;97976.59;5184033;28;20510;-59
2021/04/09 08:42:29;;;;;;;8.82;8.07;;;10.50;90.80;;;11.94;44.05;97979.91;5184894;28;20222;-60
2021/04/09 08:45:03;;;;;;;9.95;8.27;;;10.50;90.90;;;11.88;44.27;97971.91;5173556;28;20581;-58
2021/04/09 08:47:36;;;;;;;8.57;7.50;;;10.50;90.80;;;11.86;44.41;97969.25;5182758;28;20708;-60
2021/04/09 08:50:11;;;;;;;8.02;7.30;;;10.40;90.40;;;11.88;42.57;97969.34;5166791;28;20195;-60
2021/04/09 08:52:46;;;;;;;7.45;6.85;;;10.50;89.80;;;11.89;43.83;97961.72;5164231;28;20310;-60
2021/04/09 08:55:18;;;;;;;8.85;8.00;;;10.60;90.30;;;12.10;43.14;97969.69;5182849;28;20228;-59
2021/04/09 08:57:51;;;;;;;8.80;8.02;;;10.70;90.10;;;12.21;43.89;97971.94;5166481;28;20286;-60
2021/04/09 09:00:25;;;;;;;7.75;6.97;;;10.90;90.60;;;12.40;43.84;97974.66;5163856;28;20242;-60
2021/04/09 09:02:57;;;;;;;7.45;6.88;;;11.10;89.40;;;12.54;41.94;97965.97;5164051;28;20226;-60
2021/04/09 09:05:31;;;;;;;8.95;7.78;;;11.30;88.90;;;12.67;42.58;97958.91;5164191;28;20314;-60
2021/04/09 09:08:04;;;;;;;8.35;7.45;;;11.50;88.70;;;13.01;42.67;97954.63;5164450;28;20202;-60
2021/04/09 09:10:55;;;;;;;7.90;7.22;;;11.80;87.60;;;13.19;41.00;97952.09;5164303;28;20231;-60
2021/04/09 09:13:32;;;;;;;7.93;7.10;;;12.10;85.30;;;13.41;40.94;97959.16;5164041;28;20223;-58
2021/04/09 09:16:16;;;;;;;6.70;6.10;;;12.10;85.30;;;13.59;39.82;97953.13;5178715;28;20191;-59
2021/04/09 09:18:54;;;;;;;6.78;6.18;;;12.40;84.50;;;13.74;38.94;97956.44;5183913;28;20666;-59
2021/04/09 09:21:36;;;;;;;6.38;5.78;;;12.60;81.20;;;13.80;38.27;97953.25;5186033;28;20290;-58
2021/04/09 09:24:24;;;;;;;6.32;5.72;;;12.60;79.50;;;13.95;36.78;97951.38;5178319;28;20222;-59
2021/04/09 09:27:10;;;;;;;7.95;7.03;;;12.80;78.40;;;13.96;37.89;97948.88;5167970;28;20229;-60
2021/04/09 09:29:47;;;;;;;7.25;6.55;;;12.70;81.00;;;13.89;37.40;97946.84;5167359;28;20210;-60
2021/04/09 09:32:31;;;;;;;7.40;6.70;;;12.70;81.00;;;14.01;37.58;97937.94;5167912;28;20313;-59
2021/04/09 09:35:04;;;;;;;7.90;6.75;;;12.70;80.30;;;14.07;37.80;97949.34;5167524;28;20210;-61
2021/04/09 09:37:38;;;;;;;7.20;6.45;;;12.70;81.10;;;14.19;38.13;97939.63;5167381;28;20847;-60
2021/04/09 09:40:11;;;;;;;6.70;6.10;;;12.80;79.70;;;14.23;36.67;97937.19;5190912;28;20739;-60
2021/04/09 09:42:45;;;;;;;7.40;6.65;;;12.90;78.80;;;14.35;37.95;97925.72;5191603;28;20226;-61
2021/04/09 09:45:35;;;;;;;8.98;5.80;;;13.10;80.90;;;14.37;35.61;97920.66;5186056;28;20292;-60
2021/04/09 09:48:16;;;;;;;5.60;5.07;;;13.10;76.10;;;14.52;34.27;97926.50;5189154;28;20206;-61
2021/04/09 09:50:48;;;;;;;6.03;4.68;;;13.20;74.30;;;14.54;31.32;97921.44;5187693;28;20289;-60
2021/04/09 09:53:20;;;;;;;5.10;4.70;;;13.40;69.50;;;14.72;31.81;97904.19;5195440;28;20228;-59
2021/04/09 09:55:52;;;;;;;5.53;4.53;;;13.60;69.10;;;14.76;31.95;97911.19;5190840;28;20285;-60
2021/04/09 09:58:27;;;;;;;5.25;4.65;;;13.60;69.20;;;15.08;30.10;97907.38;5204997;28;20293;-61
2021/04/09 10:01:02;;;;;;;4.70;4.28;;;13.80;67.00;;;15.10;31.17;97910.88;5187084;28;20237;-60
2021/04/09 10:03:36;;;;;;;5.72;4.68;;;13.80;68.20;;;15.03;30.77;97906.31;5192715;28;20249;-61
2021/04/09 10:06:12;;;;;;;4.68;4.13;;;13.90;66.90;;;15.12;31.10;97900.66;5207509;28;20775;-60
2021/04/09 10:09:04;;;;;;;4.60;4.20;;;13.90;67.60;;;15.17;30.17;97890.53;5171846;28;20203;-61
2021/04/09 10:11:44;;;;;;;4.40;4.00;;;13.90;65.30;;;15.31;29.34;97895.41;5187816;28;20241;-60
2021/04/09 10:14:16;;;;;;;5.15;4.47;;;14.00;64.70;;;15.30;29.93;97891.06;5186918;28;20309;-60
2021/04/09 10:16:49;;;;;;;4.90;4.30;;;14.00;64.90;;;15.42;29.90;97894.94;5203030;28;20264;-60
2021/04/09 10:19:22;;;;;;;4.47;3.85;;;14.10;65.30;;;15.58;28.40;97886.09;5190517;28;20201;-59
2021/04/09 10:21:54;;;;;;;4.13;3.80;;;14.30;62.40;;;15.62;28.89;97883.69;5194741;28;20204;-59
2021/04/09 10:24:38;;;;;;;4.35;3.95;;;14.30;62.10;;;15.84;27.54;97879.38;5189557;28;20591;-60
2021/04/09 10:27:12;;;;;;;4.30;3.50;;;14.50;61.30;;;15.76;26.05;97882.53;5201698;28;20658;-60
2021/04/09 10:29:45;;;;;;;3.80;3.50;;;14.50;57.50;;;15.82;26.80;97878.44;5191583;28;20670;-60
2021/04/09 10:32:21;;;;;;;3.97;3.42;;;14.60;58.90;;;16.02;27.19;97863.69;5186713;28;20226;-55
2021/04/09 10:34:53;;;;;;;4.20;3.25;;;14.90;59.90;;;16.12;26.34;97871.81;5196079;28;20722;-57
2021/04/09 10:37:27;;;;;;;4.85;3.38;;;15.10;58.50;;;16.21;25.34;97866.97;5190150;28;20326;-57
2021/04/09 10:39:59;;;;;;;4.07;3.67;;;15.20;56.40;;;16.09;25.10;97856.22;5189279;28;20187;-59
2021/04/09 10:42:31;;;;;;;3.95;3.30;;;15.10;56.60;;;16.11;26.10;97859.75;5191099;28;20321;-59
2021/04/09 10:45:19;;;;;;;4.15;3.75;;;15.20;57.00;;;16.17;26.48;97859.09;5180324;28;20635;-58
2021/04/09 10:47:54;;;;;;;3.47;3.28;;;15.20;57.90;;;16.21;25.15;97850.63;5188438;28;20226;-57
2021/04/09 10:50:26;;;;;;;4.10;3.70;;;15.30;56.60;;;16.19;26.44;97858.28;5183978;28;20212;-57